Time;durP1;ratioP1;P1;durP2;ratioP2;P2;SDS_P1;SDS_P2;PMS_P1;PMS_P2;Temp;Humidity;BMP_temperature;BMP_pressure;BME280_temperature;BME280_humidity;BME280_pressure;Samples;Min_cycle;Max_cycle;Signal;HPM_P1;HPM_P2
2023/01/31 00:01:15;;;;;;;2.58;1.85;;;;;;;;;;5044695;28;20750;-84
2023/01/31 00:03:42;;;;;;;3.35;2.58;;;;;;;;;;5055952;28;20036;-84
2023/01/31 00:06:12;;;;;;;2.15;1.33;;;;;;;;;;5042276;28;20048;-84
2023/01/31 00:08:37;;;;;;;;;;;;;;;;;;5048426;28;20381;-85
2023/01/31 00:11:03;;;;;;;6.57;2.88;;;;;;;;;;5045918;28;19913;-84
2023/01/31 00:13:28;;;;;;;5.40;3.40;;;;;;;;;;5047528;28;20028;-84
2023/01/31 00:15:57;;;;;;;4.97;2.65;;;;;;;;;;5039572;28;20033;-82
2023/01/31 00:18:23;;;;;;;2.63;2.38;;;;;;;;;;5044859;28;20027;-83
2023/01/31 00:20:48;;;;;;;8.05;3.28;;;;;;;;;;5039819;28;20033;-84
2023/01/31 00:23:14;;;;;;;10.95;4.90;;;;;;;;;;5042775;28;20105;-85
2023/01/31 00:25:39;;;;;;;6.72;3.15;;;;;;;;;;5043616;28;20120;-84
2023/01/31 00:28:05;;;;;;;7.38;3.35;;;;;;;;;;5046496;28;20449;-83
2023/01/31 00:30:30;;;;;;;8.45;4.00;;;;;;;;;;5041894;28;20528;-83
2023/01/31 00:32:56;;;;;;;6.10;4.18;;;;;;;;;;5047758;28;20062;-84
2023/01/31 00:35:21;;;;;;;3.15;2.28;;;;;;;;;;5040148;28;20116;-82
2023/01/31 00:37:47;;;;;;;8.88;5.10;;;;;;;;;;5042865;28;20048;-84
2023/01/31 00:40:12;;;;;;;7.75;4.28;;;;;;;;;;5041753;28;20025;-84
2023/01/31 00:42:38;;;;;;;12.35;4.95;;;;;;;;;;5042695;28;20079;-85
2023/01/31 00:45:03;;;;;;;8.80;4.53;;;;;;;;;;5036014;28;20025;-85
2023/01/31 00:47:29;;;;;;;8.63;3.95;;;;;;;;;;5039188;28;20029;-84
2023/01/31 00:49:54;;;;;;;6.78;4.03;;;;;;;;;;5044497;28;20026;-85
2023/01/31 00:52:20;;;;;;;9.85;4.22;;;;;;;;;;5043602;28;20048;-83
2023/01/31 00:54:46;;;;;;;7.60;4.95;;;;;;;;;;5043693;28;20037;-84
2023/01/31 00:57:11;;;;;;;6.45;4.53;;;;;;;;;;5045773;28;20021;-83
2023/01/31 00:59:37;;;;;;;8.02;3.80;;;;;;;;;;5043403;28;20036;-84
2023/01/31 01:02:02;;;;;;;4.57;2.90;;;;;;;;;;5044595;28;20034;-83
2023/01/31 01:04:27;;;;;;;11.60;5.20;;;;;;;;;;5044837;28;20029;-84
2023/01/31 01:06:53;;;;;;;11.10;4.53;;;;;;;;;;5043967;28;20036;-83
2023/01/31 01:09:18;;;;;;;5.03;3.72;;;;;;;;;;5045300;28;20822;-84
2023/01/31 01:11:44;;;;;;;10.60;5.38;;;;;;;;;;5037520;28;20064;-84
2023/01/31 01:14:09;;;;;;;6.20;2.60;;;;;;;;;;5042263;28;20033;-83
2023/01/31 01:16:38;;;;;;;5.20;3.95;;;;;;;;;;5043368;28;20045;-84
2023/01/31 01:19:06;;;;;;;5.07;2.88;;;;;;;;;;5042965;28;20021;-85
2023/01/31 01:21:37;;;;;;;2.08;1.00;;;;;;;;;;5047155;28;20052;-81
2023/01/31 01:24:04;;;;;;;0.80;0.80;;;;;;;;;;5040496;28;20029;-83
2023/01/31 01:26:31;;;;;;;1.15;0.80;;;;;;;;;;5046581;28;20060;-84
2023/01/31 01:28:58;;;;;;;4.32;0.90;;;;;;;;;;5045439;28;20089;-84
2023/01/31 01:31:28;;;;;;;0.65;0.52;;;;;;;;;;5042022;28;20040;-83
2023/01/31 01:34:05;;;;;;;1.30;1.00;;;;;;;;;;5042933;28;20027;-83
2023/01/31 01:36:35;;;;;;;2.72;0.77;;;;;;;;;;5048136;28;20020;-81
2023/01/31 01:39:03;;;;;;;0.40;0.40;;;;;;;;;;5043152;28;20013;-82
2023/01/31 01:41:32;;;;;;;0.88;0.57;;;;;;;;;;5041238;28;20102;-83
2023/01/31 01:43:59;;;;;;;0.50;0.50;;;;;;;;;;5044596;28;20371;-82
2023/01/31 01:46:25;;;;;;;0.52;0.40;;;;;;;;;;5039865;28;20048;-83
2023/01/31 01:48:56;;;;;;;1.17;1.05;;;;;;;;;;5040123;28;20461;-82
2023/01/31 01:51:22;;;;;;;2.17;1.08;;;;;;;;;;5041401;28;20033;-81
2023/01/31 01:53:52;;;;;;;0.90;0.75;;;;;;;;;;5041406;28;20033;-81
2023/01/31 01:56:28;;;;;;;0.57;0.57;;;;;;;;;;5047527;28;20059;-82
2023/01/31 01:58:56;;;;;;;1.45;1.10;;;;;;;;;;5042721;28;20033;-81
2023/01/31 02:01:23;;;;;;;0.50;0.47;;;;;;;;;;5044098;28;20025;-82
2023/01/31 02:03:51;;;;;;;0.77;0.70;;;;;;;;;;5040066;28;20105;-81
2023/01/31 02:06:17;;;;;;;0.82;0.80;;;;;;;;;;5042692;28;20036;-82
2023/01/31 02:08:43;;;;;;;2.25;0.95;;;;;;;;;;5047575;28;20040;-83
2023/01/31 02:11:21;;;;;;;10.63;0.85;;;;;;;;;;5042656;28;20535;-82
2023/01/31 02:13:49;;;;;;;2.30;1.20;;;;;;;;;;5042304;28;20029;-82
2023/01/31 02:16:15;;;;;;;1.60;1.10;;;;;;;;;;5044974;28;20032;-83
2023/01/31 02:18:41;;;;;;;0.63;0.63;;;;;;;;;;5041182;28;20021;-82
2023/01/31 02:21:38;;;;;;;2.28;0.80;;;;;;;;;;5044310;28;20025;-83
2023/01/31 02:24:34;;;;;;;2.72;1.98;;;;;;;;;;5032335;28;20037;-82
2023/01/31 02:27:18;;;;;;;0.40;0.40;;;;;;;;;;5037384;28;20477;-82
2023/01/31 02:30:14;;;;;;;0.98;0.90;;;;;;;;;;5045485;28;20025;-81
2023/01/31 02:32:39;;;;;;;1.33;0.88;;;;;;;;;;5047970;28;20057;-83
2023/01/31 02:35:08;;;;;;;1.20;0.98;;;;;;;;;;5044030;28;20495;-84
2023/01/31 02:37:58;;;;;;;1.45;0.95;;;;;;;;;;5043458;28;20036;-81
2023/01/31 02:40:45;;;;;;;1.67;1.00;;;;;;;;;;5041699;28;20028;-81
2023/01/31 02:46:51;;;;;;;0.88;0.88;;;;;;;;;;5034647;28;20088;-82
2023/01/31 02:49:33;;;;;;;1.35;0.82;;;;;;;;;;5041697;28;20025;-84
2023/01/31 02:52:20;;;;;;;3.03;1.70;;;;;;;;;;5037047;28;20029;-82
2023/01/31 02:57:45;;;;;;;0.22;0.22;;;;;;;;;;5038667;28;20044;-82
2023/01/31 03:00:12;;;;;;;2.17;1.17;;;;;;;;;;5045752;28;20029;-83
2023/01/31 03:02:38;;;;;;;0.82;0.55;;;;;;;;;;5039346;28;20021;-81
2023/01/31 03:05:05;;;;;;;1.70;1.33;;;;;;;;;;5039403;28;20718;-81
2023/01/31 03:07:36;;;;;;;0.93;0.73;;;;;;;;;;5041378;28;20043;-82
2023/01/31 03:10:36;;;;;;;1.42;1.00;;;;;;;;;;5040962;28;20416;-82
2023/01/31 03:13:12;;;;;;;2.00;1.42;;;;;;;;;;5034977;28;20469;-83
2023/01/31 03:18:58;;;;;;;2.15;1.27;;;;;;;;;;5041090;28;20059;-80
2023/01/31 03:21:33;;;;;;;1.05;0.93;;;;;;;;;;5038881;28;20618;-81
2023/01/31 03:23:59;;;;;;;0.55;0.55;;;;;;;;;;5042480;28;20034;-82
2023/01/31 03:26:26;;;;;;;1.05;1.05;;;;;;;;;;5038945;28;20040;-82
2023/01/31 03:28:56;;;;;;;3.40;1.65;;;;;;;;;;5040120;28;20115;-81
2023/01/31 03:31:25;;;;;;;;;;;;;;;;;;5047782;28;20104;-82
2023/01/31 03:33:55;;;;;;;3.30;1.98;;;;;;;;;;5045665;28;19913;-84
2023/01/31 03:36:49;;;;;;;0.77;0.70;;;;;;;;;;5045167;28;20461;-80
2023/01/31 03:39:20;;;;;;;1.00;0.95;;;;;;;;;;5046332;28;20647;-82
2023/01/31 03:41:50;;;;;;;1.50;1.30;;;;;;;;;;5043182;28;20025;-82
2023/01/31 03:44:21;;;;;;;1.27;0.77;;;;;;;;;;5044016;28;20029;-84
2023/01/31 03:46:50;;;;;;;1.13;0.88;;;;;;;;;;5045143;28;20029;-80
2023/01/31 03:49:19;;;;;;;2.00;1.58;;;;;;;;;;5043533;28;20056;-82
2023/01/31 03:51:51;;;;;;;0.82;0.80;;;;;;;;;;5039739;28;20047;-83
2023/01/31 03:54:26;;;;;;;1.90;1.30;;;;;;;;;;5038801;28;20021;-83
2023/01/31 03:56:59;;;;;;;2.47;1.10;;;;;;;;;;5040123;28;20558;-84
2023/01/31 03:59:28;;;;;;;4.03;1.30;;;;;;;;;;5041154;28;20451;-82
2023/01/31 04:01:58;;;;;;;1.80;1.33;;;;;;;;;;5043362;28;20057;-82
2023/01/31 04:04:36;;;;;;;;;;;;;;;;;;5040185;28;20547;-82
2023/01/31 04:07:02;;;;;;;0.90;0.77;;;;;;;;;;5049154;28;19917;-82
2023/01/31 04:09:28;;;;;;;0.90;0.90;;;;;;;;;;5045562;28;20028;-83
2023/01/31 04:11:58;;;;;;;1.25;1.10;;;;;;;;;;5047683;28;20025;-83
2023/01/31 04:14:24;;;;;;;2.30;1.23;;;;;;;;;;5040092;28;20375;-85
2023/01/31 04:16:49;;;;;;;2.15;1.35;;;;;;;;;;5045886;28;20033;-82
2023/01/31 04:19:14;;;;;;;1.73;1.45;;;;;;;;;;5049703;28;20039;-82
2023/01/31 04:21:40;;;;;;;2.92;1.30;;;;;;;;;;5043635;28;20021;-83
2023/01/31 04:24:08;;;;;;;2.80;1.90;;;;;;;;;;5044218;28;20036;-83
2023/01/31 04:26:33;;;;;;;2.28;1.65;;;;;;;;;;5042190;28;20164;-82
2023/01/31 04:28:58;;;;;;;3.28;1.75;;;;;;;;;;5045173;28;20492;-82
2023/01/31 04:31:24;;;;;;;3.30;2.05;;;;;;;;;;5047073;28;20032;-81
2023/01/31 04:33:49;;;;;;;4.90;3.15;;;;;;;;;;5047175;28;20117;-82
2023/01/31 04:36:15;;;;;;;0.88;0.77;;;;;;;;;;5048586;28;20030;-82
2023/01/31 04:38:46;;;;;;;1.88;1.30;;;;;;;;;;5048966;28;20032;-83
2023/01/31 04:41:12;;;;;;;4.82;2.85;;;;;;;;;;5044253;28;20473;-83
2023/01/31 04:43:37;;;;;;;2.83;1.20;;;;;;;;;;5050052;28;20086;-82
2023/01/31 04:46:03;;;;;;;3.28;2.75;;;;;;;;;;5047745;28;20021;-82
2023/01/31 04:48:29;;;;;;;1.75;1.10;;;;;;;;;;5045710;28;20021;-82
2023/01/31 04:50:54;;;;;;;1.45;1.20;;;;;;;;;;5045685;28;20398;-82
2023/01/31 04:53:21;;;;;;;2.53;1.92;;;;;;;;;;5039039;28;20117;-81
2023/01/31 04:55:46;;;;;;;2.60;1.55;;;;;;;;;;5041485;28;20160;-82
2023/01/31 04:58:12;;;;;;;1.48;0.88;;;;;;;;;;5041955;28;20045;-82
2023/01/31 05:00:37;;;;;;;3.22;2.13;;;;;;;;;;5043504;28;20151;-81
2023/01/31 05:03:03;;;;;;;2.38;1.63;;;;;;;;;;5046991;28;20052;-82
2023/01/31 05:05:28;;;;;;;2.42;1.38;;;;;;;;;;5045694;28;20163;-81
2023/01/31 05:07:53;;;;;;;2.13;1.27;;;;;;;;;;5074347;28;20040;-80
2023/01/31 05:10:19;;;;;;;2.15;1.60;;;;;;;;;;5046201;28;20036;-81
2023/01/31 05:12:45;;;;;;;0.90;0.65;;;;;;;;;;5043274;28;20029;-84
2023/01/31 05:15:11;;;;;;;1.58;1.38;;;;;;;;;;5039624;28;20025;-83
2023/01/31 05:17:37;;;;;;;1.30;0.93;;;;;;;;;;5075998;28;20035;-81
2023/01/31 05:20:03;;;;;;;1.80;1.23;;;;;;;;;;5044953;28;20100;-83
2023/01/31 05:22:29;;;;;;;1.13;0.90;;;;;;;;;;5043282;28;20021;-82
2023/01/31 05:24:54;;;;;;;1.73;0.77;;;;;;;;;;5046533;28;20094;-83
2023/01/31 05:27:20;;;;;;;1.75;1.38;;;;;;;;;;5043053;28;20034;-82
2023/01/31 05:29:46;;;;;;;0.70;0.70;;;;;;;;;;5048774;28;20033;-82
2023/01/31 05:32:12;;;;;;;0.80;0.80;;;;;;;;;;5040748;28;20484;-82
2023/01/31 05:34:37;;;;;;;1.75;1.10;;;;;;;;;;5045812;28;20021;-83
2023/01/31 05:37:03;;;;;;;4.85;1.85;;;;;;;;;;5047641;28;20025;-80
2023/01/31 05:39:29;;;;;;;1.27;1.17;;;;;;;;;;5049641;28;20017;-80
2023/01/31 05:41:55;;;;;;;1.83;1.33;;;;;;;;;;5046468;28;20017;-80
2023/01/31 05:44:21;;;;;;;1.20;1.10;;;;;;;;;;5042720;28;20044;-80
2023/01/31 05:46:47;;;;;;;4.25;1.83;;;;;;;;;;5039201;28;20111;-83
2023/01/31 05:49:12;;;;;;;1.67;1.23;;;;;;;;;;5038526;28;20388;-82
2023/01/31 05:51:39;;;;;;;0.73;0.73;;;;;;;;;;5033906;28;20037;-80
2023/01/31 05:54:04;;;;;;;2.17;0.95;;;;;;;;;;5048105;28;20035;-79
2023/01/31 05:56:30;;;;;;;0.93;0.93;;;;;;;;;;5046228;28;20021;-79
2023/01/31 05:58:55;;;;;;;2.65;2.20;;;;;;;;;;5046127;28;20469;-81
2023/01/31 06:01:23;;;;;;;1.80;1.33;;;;;;;;;;5047364;28;20025;-80
2023/01/31 06:03:49;;;;;;;2.03;1.48;;;;;;;;;;5043479;28;20036;-80
2023/01/31 06:06:14;;;;;;;2.35;0.90;;;;;;;;;;5038241;28;20462;-80
2023/01/31 06:08:43;;;;;;;1.38;0.88;;;;;;;;;;5042668;28;20381;-80
2023/01/31 06:11:10;;;;;;;1.48;1.08;;;;;;;;;;5035623;28;20483;-81
2023/01/31 06:13:36;;;;;;;1.55;1.45;;;;;;;;;;5041197;28;20036;-81
2023/01/31 06:16:02;;;;;;;1.85;1.15;;;;;;;;;;5036595;28;20029;-82
2023/01/31 06:18:28;;;;;;;2.97;1.85;;;;;;;;;;5035111;28;20028;-82
2023/01/31 06:20:53;;;;;;;3.47;1.75;;;;;;;;;;5040983;28;20056;-82
2023/01/31 06:23:19;;;;;;;1.20;1.10;;;;;;;;;;5036540;28;20051;-80
2023/01/31 06:25:51;;;;;;;1.95;1.13;;;;;;;;;;5035787;28;20040;-80
2023/01/31 06:28:17;;;;;;;3.38;1.67;;;;;;;;;;5041074;28;20037;-79
2023/01/31 06:30:43;;;;;;;2.03;1.67;;;;;;;;;;5035740;28;20524;-80
2023/01/31 06:33:09;;;;;;;0.47;0.47;;;;;;;;;;5040818;28;20029;-81
2023/01/31 06:35:35;;;;;;;2.38;1.67;;;;;;;;;;5038970;28;20029;-81
2023/01/31 06:38:02;;;;;;;1.08;0.85;;;;;;;;;;5034976;28;20038;-80
2023/01/31 06:40:27;;;;;;;2.13;1.52;;;;;;;;;;5038778;28;20431;-81
2023/01/31 06:42:53;;;;;;;4.07;1.73;;;;;;;;;;5037503;28;20102;-81
2023/01/31 06:45:18;;;;;;;3.35;1.58;;;;;;;;;;5044417;28;20087;-81
2023/01/31 06:47:44;;;;;;;1.77;1.27;;;;;;;;;;5031839;28;20040;-81
2023/01/31 06:50:10;;;;;;;1.42;1.20;;;;;;;;;;5032144;28;20037;-80
2023/01/31 06:52:36;;;;;;;3.60;1.50;;;;;;;;;;5042679;28;20455;-81
2023/01/31 06:55:02;;;;;;;5.40;2.65;;;;;;;;;;5032006;28;20037;-80
2023/01/31 06:57:27;;;;;;;3.78;1.48;;;;;;;;;;5041157;28;20370;-81
2023/01/31 06:59:53;;;;;;;2.53;0.90;;;;;;;;;;5037419;28;20032;-80
2023/01/31 07:02:18;;;;;;;1.25;1.15;;;;;;;;;;5039873;28;20075;-80
2023/01/31 07:04:43;;;;;;;2.28;1.38;;;;;;;;;;5036393;28;20447;-79
2023/01/31 07:07:09;;;;;;;2.35;1.38;;;;;;;;;;5039450;28;20469;-80
2023/01/31 07:09:34;;;;;;;2.08;1.55;;;;;;;;;;5043049;28;20025;-80
2023/01/31 07:12:01;;;;;;;3.92;1.58;;;;;;;;;;5042648;28;20048;-80
2023/01/31 07:14:26;;;;;;;1.48;1.02;;;;;;;;;;5036493;28;20074;-80
2023/01/31 07:16:52;;;;;;;1.48;1.30;;;;;;;;;;5047780;28;20029;-80
2023/01/31 07:19:17;;;;;;;1.02;0.93;;;;;;;;;;5039421;28;20024;-81
2023/01/31 07:21:43;;;;;;;1.90;1.80;;;;;;;;;;5045885;28;20036;-79
2023/01/31 07:24:09;;;;;;;0.90;0.88;;;;;;;;;;5045679;28;20063;-79
2023/01/31 07:26:34;;;;;;;2.13;1.90;;;;;;;;;;5042676;28;20555;-80
2023/01/31 07:28:59;;;;;;;3.63;2.20;;;;;;;;;;5049439;28;20074;-80
2023/01/31 07:31:25;;;;;;;1.58;1.20;;;;;;;;;;5044179;28;20029;-81
2023/01/31 07:33:50;;;;;;;1.67;1.55;;;;;;;;;;5041819;28;20469;-81
2023/01/31 07:36:18;;;;;;;1.73;0.98;;;;;;;;;;5046963;28;20186;-81
2023/01/31 07:38:44;;;;;;;2.88;1.25;;;;;;;;;;5042974;28;20036;-81
2023/01/31 07:41:10;;;;;;;1.00;0.80;;;;;;;;;;5040004;28;20029;-81
2023/01/31 07:43:36;;;;;;;1.77;0.80;;;;;;;;;;5042730;28;20041;-81
2023/01/31 07:46:04;;;;;;;0.80;0.80;;;;;;;;;;5038351;28;20394;-79
2023/01/31 07:48:30;;;;;;;0.95;0.90;;;;;;;;;;5043156;28;20044;-80
2023/01/31 07:51:00;;;;;;;1.02;0.90;;;;;;;;;;5042456;28;20053;-80
2023/01/31 07:53:28;;;;;;;1.58;1.30;;;;;;;;;;5047813;28;20056;-81
2023/01/31 07:55:54;;;;;;;3.42;2.67;;;;;;;;;;5043215;28;20025;-82
2023/01/31 08:03:32;;;;;;;3.42;2.72;;;;;;;;;;5076821;28;20387;-86
2023/01/31 08:06:11;;;;;;;0.73;0.73;;;;;;;;;;5072607;28;20106;-87
2023/01/31 08:08:37;;;;;;;2.22;1.25;;;;;;;;;;5073250;28;20431;-85
2023/01/31 08:11:06;;;;;;;1.65;1.48;;;;;;;;;;5079360;28;20029;-86
2023/01/31 08:13:35;;;;;;;2.47;1.35;;;;;;;;;;5072689;28;20055;-86
2023/01/31 08:16:05;;;;;;;0.90;0.65;;;;;;;;;;5076452;28;20533;-85
2023/01/31 08:18:31;;;;;;;1.17;1.08;;;;;;;;;;5077854;28;20039;-84
2023/01/31 08:20:57;;;;;;;2.92;1.27;;;;;;;;;;5073619;28;20024;-84
2023/01/31 08:23:23;;;;;;;2.03;1.48;;;;;;;;;;5069487;28;20107;-86
2023/01/31 08:25:48;;;;;;;1.73;1.20;;;;;;;;;;5075403;28;20067;-85
2023/01/31 08:28:14;;;;;;;3.35;1.67;;;;;;;;;;5072624;28;20107;-84
2023/01/31 08:30:43;;;;;;;1.58;1.10;;;;;;;;;;5076857;28;20039;-83
2023/01/31 08:33:10;;;;;;;2.78;1.50;;;;;;;;;;5068231;28;20477;-83
2023/01/31 08:35:37;;;;;;;2.00;1.58;;;;;;;;;;5075534;28;20060;-83
2023/01/31 08:38:03;;;;;;;1.50;1.40;;;;;;;;;;5075246;28;20517;-86
2023/01/31 08:40:29;;;;;;;2.78;1.80;;;;;;;;;;5080853;28;20025;-86
2023/01/31 08:42:56;;;;;;;0.68;0.68;;;;;;;;;;5071207;28;20139;-84
2023/01/31 08:45:23;;;;;;;0.80;0.80;;;;;;;;;;5076537;28;20078;-83
2023/01/31 08:47:56;;;;;;;1.15;1.05;;;;;;;;;;5077028;28;20032;-82
2023/01/31 08:50:26;;;;;;;5.20;1.83;;;;;;;;;;5076741;28;20025;-84
2023/01/31 08:52:57;;;;;;;0.80;0.80;;;;;;;;;;5073543;28;20032;-86
2023/01/31 08:55:24;;;;;;;0.93;0.88;;;;;;;;;;5069414;28;20127;-83
2023/01/31 08:57:50;;;;;;;2.38;1.60;;;;;;;;;;5071841;28;20028;-86
2023/01/31 09:00:17;;;;;;;0.93;0.93;;;;;;;;;;5077211;28;20038;-86
2023/01/31 09:02:45;;;;;;;2.55;1.17;;;;;;;;;;5069457;28;20079;-85
2023/01/31 09:05:11;;;;;;;1.75;1.58;;;;;;;;;;5064180;28;20033;-83
2023/01/31 09:07:40;;;;;;;0.65;0.65;;;;;;;;;;5070025;28;20117;-85
2023/01/31 09:10:06;;;;;;;0.60;0.50;;;;;;;;;;5069840;28;20038;-82
2023/01/31 09:12:44;;;;;;;1.15;1.05;;;;;;;;;;5059940;28;20032;-86
2023/01/31 09:15:31;;;;;;;;;;;;;;;;;;;;;
2023/01/31 09:18:00;;;;;;;1.67;0.82;;;;;;;;;;5061398;28;20040;-86
2023/01/31 09:20:35;;;;;;;2.30;0.88;;;;;;;;;;5057691;28;20071;-87
2023/01/31 09:23:01;;;;;;;0.98;0.85;;;;;;;;;;5059294;28;20078;-84
2023/01/31 09:25:27;;;;;;;2.05;1.67;;;;;;;;;;5062596;28;20029;-86
2023/01/31 09:28:03;;;;;;;;;;;;;;;;;;;;;
2023/01/31 09:30:28;;;;;;;2.38;0.90;;;;;;;;;;5062132;28;20035;-82
2023/01/31 09:32:54;;;;;;;2.63;1.48;;;;;;;;;;5060212;28;20099;-82
2023/01/31 09:35:20;;;;;;;0.80;0.80;;;;;;;;;;5064328;28;20029;-80
2023/01/31 09:37:46;;;;;;;1.58;1.48;;;;;;;;;;5062842;28;20370;-81
2023/01/31 09:40:21;;;;;;;2.08;1.35;;;;;;;;;;5058933;28;20074;-84
2023/01/31 09:42:48;;;;;;;1.42;1.33;;;;;;;;;;5060168;28;20021;-81
2023/01/31 09:45:26;;;;;;;2.30;0.88;;;;;;;;;;5058822;28;20037;-81
2023/01/31 09:47:55;;;;;;;1.17;1.00;;;;;;;;;;5057989;28;20032;-82
2023/01/31 09:50:30;;;;;;;0.82;0.80;;;;;;;;;;5063577;28;20028;-81
2023/01/31 09:52:56;;;;;;;1.30;0.80;;;;;;;;;;5060970;28;20056;-81
2023/01/31 09:55:46;;;;;;;2.28;1.33;;;;;;;;;;5063983;28;20150;-83
2023/01/31 09:58:14;;;;;;;0.63;0.57;;;;;;;;;;5059758;28;20056;-83
2023/01/31 10:00:49;;;;;;;0.85;0.85;;;;;;;;;;5061132;28;20029;-83
2023/01/31 10:03:28;;;;;;;0.85;0.63;;;;;;;;;;5056877;28;20086;-83
2023/01/31 10:06:25;;;;;;;1.05;1.05;;;;;;;;;;5060738;28;20468;-82
2023/01/31 10:09:18;;;;;;;1.10;1.00;;;;;;;;;;5052997;28;20041;-82
2023/01/31 10:11:50;;;;;;;0.52;0.52;;;;;;;;;;5057263;28;20415;-81
2023/01/31 10:14:27;;;;;;;0.93;0.70;;;;;;;;;;5057020;28;20024;-84
2023/01/31 10:17:05;;;;;;;1.40;1.30;;;;;;;;;;5067114;28;20032;-84
2023/01/31 10:19:44;;;;;;;1.42;0.90;;;;;;;;;;5057602;28;20050;-83
2023/01/31 10:22:17;;;;;;;1.25;1.00;;;;;;;;;;5058206;28;20108;-84
2023/01/31 10:24:52;;;;;;;0.73;0.73;;;;;;;;;;5066533;28;20029;-83
2023/01/31 10:27:49;;;;;;;0.88;0.88;;;;;;;;;;5059147;28;20028;-83
2023/01/31 10:30:23;;;;;;;0.88;0.80;;;;;;;;;;5057721;28;20424;-83
2023/01/31 10:32:57;;;;;;;1.23;0.77;;;;;;;;;;5062000;28;20104;-86
2023/01/31 10:35:29;;;;;;;1.13;0.98;;;;;;;;;;5060953;28;20935;-84
2023/01/31 10:38:02;;;;;;;1.08;0.73;;;;;;;;;;5060733;28;20035;-85
2023/01/31 10:40:40;;;;;;;1.38;1.02;;;;;;;;;;5060954;28;20048;-84
2023/01/31 10:43:15;;;;;;;7.82;2.40;;;;;;;;;;5058765;28;20031;-83
2023/01/31 10:45:41;;;;;;;1.25;1.15;;;;;;;;;;5055833;28;20558;-83
2023/01/31 10:48:18;;;;;;;1.85;1.60;;;;;;;;;;5057386;28;20033;-83
2023/01/31 10:50:55;;;;;;;1.30;0.90;;;;;;;;;;5052636;28;20430;-83
2023/01/31 10:53:26;;;;;;;2.90;1.73;;;;;;;;;;5061115;28;20025;-81
2023/01/31 10:56:06;;;;;;;1.60;0.90;;;;;;;;;;5052124;28;20074;-80
2023/01/31 10:58:33;;;;;;;1.05;1.00;;;;;;;;;;5058854;28;20381;-82
2023/01/31 11:00:59;;;;;;;1.33;0.90;;;;;;;;;;5060042;28;20031;-82
2023/01/31 11:03:25;;;;;;;0.82;0.82;;;;;;;;;;5055553;28;20045;-83
2023/01/31 11:05:53;;;;;;;0.98;0.90;;;;;;;;;;5057888;28;20032;-80
2023/01/31 11:08:40;;;;;;;1.55;1.40;;;;;;;;;;5059353;28;20064;-81
2023/01/31 11:11:11;;;;;;;1.75;1.10;;;;;;;;;;5054952;28;20028;-84
2023/01/31 11:13:37;;;;;;;4.75;1.50;;;;;;;;;;5061780;28;20482;-82
2023/01/31 11:16:08;;;;;;;1.40;1.05;;;;;;;;;;5054603;28;20060;-82
2023/01/31 11:18:52;;;;;;;1.67;1.38;;;;;;;;;;5056703;28;20027;-83
2023/01/31 11:21:38;;;;;;;1.90;1.52;;;;;;;;;;5055079;28;20035;-83
2023/01/31 11:24:14;;;;;;;3.28;1.58;;;;;;;;;;5053384;28;20418;-83
2023/01/31 11:26:56;;;;;;;2.30;1.75;;;;;;;;;;5057440;28;20028;-82
2023/01/31 11:29:28;;;;;;;0.80;0.80;;;;;;;;;;5052426;28;20033;-82
2023/01/31 11:31:55;;;;;;;2.35;1.67;;;;;;;;;;5058486;28;20548;-83
2023/01/31 11:34:22;;;;;;;1.38;1.13;;;;;;;;;;5056173;28;20477;-83
2023/01/31 11:36:47;;;;;;;2.85;1.73;;;;;;;;;;5052327;28;20079;-83
2023/01/31 11:39:37;;;;;;;2.13;1.20;;;;;;;;;;5058102;28;20056;-82
2023/01/31 11:42:20;;;;;;;0.65;0.65;;;;;;;;;;5052743;28;20105;-82
2023/01/31 11:44:59;;;;;;;1.25;0.90;;;;;;;;;;5058003;28;20036;-82
2023/01/31 11:47:37;;;;;;;1.27;0.85;;;;;;;;;;5055295;28;20045;-82
2023/01/31 11:50:03;;;;;;;3.25;1.77;;;;;;;;;;5054129;28;20476;-81
2023/01/31 11:52:31;;;;;;;1.88;1.05;;;;;;;;;;5059403;28;20024;-82
2023/01/31 11:55:07;;;;;;;1.48;1.08;;;;;;;;;;5059748;28;20106;-81
2023/01/31 11:57:38;;;;;;;1.38;1.27;;;;;;;;;;5053171;28;20492;-83
2023/01/31 12:00:18;;;;;;;1.13;1.02;;;;;;;;;;5054189;28;20028;-81
2023/01/31 12:02:45;;;;;;;0.77;0.73;;;;;;;;;;5054958;28;20051;-83
2023/01/31 12:05:14;;;;;;;1.10;1.00;;;;;;;;;;5050985;28;20028;-81
2023/01/31 12:07:49;;;;;;;1.60;1.43;;;;;;;;;;5058614;28;20039;-83
2023/01/31 12:10:35;;;;;;;2.10;1.55;;;;;;;;;;5049128;28;20029;-84
2023/01/31 12:13:11;;;;;;;1.80;1.48;;;;;;;;;;5059569;28;20099;-84
2023/01/31 12:15:56;;;;;;;4.25;1.88;;;;;;;;;;5065246;28;20032;-83
2023/01/31 12:18:50;;;;;;;3.35;1.77;;;;;;;;;;5052098;28;20115;-82
2023/01/31 12:21:29;;;;;;;2.28;1.73;;;;;;;;;;5052402;28;20017;-82
2023/01/31 12:24:04;;;;;;;;;;;;;;;;;;5055305;28;20025;-82
2023/01/31 12:26:41;;;;;;;2.45;1.88;;;;;;;;;;5055987;28;19917;-83
2023/01/31 12:29:34;;;;;;;2.38;1.80;;;;;;;;;;5058258;28;20384;-82
2023/01/31 12:31:59;;;;;;;0.88;0.68;;;;;;;;;;5056036;28;20025;-81
2023/01/31 12:34:27;;;;;;;3.38;1.98;;;;;;;;;;5060132;28;20491;-83
2023/01/31 12:37:29;;;;;;;0.85;0.85;;;;;;;;;;5058429;28;20104;-81
2023/01/31 12:40:13;;;;;;;1.80;1.48;;;;;;;;;;5056585;28;20033;-82
2023/01/31 12:43:00;;;;;;;0.80;0.70;;;;;;;;;;5056921;28;20036;-83
2023/01/31 12:45:48;;;;;;;1.85;1.17;;;;;;;;;;5059537;28;20036;-85
2023/01/31 12:48:32;;;;;;;0.60;0.60;;;;;;;;;;5057835;28;20112;-79
2023/01/31 12:51:08;;;;;;;1.27;1.17;;;;;;;;;;5064868;28;20040;-82
2023/01/31 12:54:04;;;;;;;2.53;1.35;;;;;;;;;;5059617;28;20028;-82
2023/01/31 12:56:59;;;;;;;1.23;0.98;;;;;;;;;;5062566;28;20059;-81
2023/01/31 12:59:51;;;;;;;4.93;1.35;;;;;;;;;;5039865;28;20041;-78
2023/01/31 13:02:55;;;;;;;0.43;0.43;;;;;;;;;;5063275;28;20619;-81
2023/01/31 13:05:33;;;;;;;2.25;1.15;;;;;;;;;;5053495;28;20512;-81
2023/01/31 13:08:16;;;;;;;2.05;1.45;;;;;;;;;;5059003;28;20112;-83
2023/01/31 13:11:21;;;;;;;3.00;2.20;;;;;;;;;;5060882;28;20059;-81
2023/01/31 13:13:59;;;;;;;1.30;1.08;;;;;;;;;;5060939;28;20017;-82
2023/01/31 13:16:30;;;;;;;2.45;1.15;;;;;;;;;;5062136;28;20079;-85
2023/01/31 13:19:01;;;;;;;1.40;1.30;;;;;;;;;;5054663;28;20029;-86
2023/01/31 13:21:32;;;;;;;0.77;0.77;;;;;;;;;;5062712;28;20035;-82
2023/01/31 13:24:11;;;;;;;2.17;1.30;;;;;;;;;;5055577;28;20491;-84
2023/01/31 13:26:44;;;;;;;1.30;1.20;;;;;;;;;;5050392;28;20078;-81
2023/01/31 13:29:21;;;;;;;0.75;0.55;;;;;;;;;;5061061;28;20285;-83
2023/01/31 13:31:55;;;;;;;0.63;0.63;;;;;;;;;;5060880;28;20017;-81
2023/01/31 13:34:30;;;;;;;1.15;0.88;;;;;;;;;;5054552;28;20053;-82
2023/01/31 13:37:09;;;;;;;1.75;1.65;;;;;;;;;;5051294;28;20051;-82
2023/01/31 13:39:41;;;;;;;2.92;1.92;;;;;;;;;;5055591;28;20025;-82
2023/01/31 13:42:12;;;;;;;2.95;1.38;;;;;;;;;;5049729;28;20074;-81
2023/01/31 13:44:38;;;;;;;5.07;3.15;;;;;;;;;;5063404;28;20020;-83
2023/01/31 13:47:11;;;;;;;0.90;0.90;;;;;;;;;;5058638;28;20089;-84
2023/01/31 13:49:48;;;;;;;1.15;0.85;;;;;;;;;;5054533;28;20414;-83
2023/01/31 13:52:52;;;;;;;1.65;1.42;;;;;;;;;;5054342;28;20021;-83
2023/01/31 13:55:22;;;;;;;1.33;1.23;;;;;;;;;;5042662;28;20044;-82
2023/01/31 13:58:14;;;;;;;4.47;3.00;;;;;;;;;;5057455;28;20040;-83
2023/01/31 14:00:43;;;;;;;5.07;2.08;;;;;;;;;;5062354;28;20510;-82
2023/01/31 14:03:19;;;;;;;5.65;2.63;;;;;;;;;;5052784;28;20091;-82
2023/01/31 14:05:52;;;;;;;1.55;1.45;;;;;;;;;;5056234;28;20373;-84
2023/01/31 14:08:36;;;;;;;3.28;2.92;;;;;;;;;;5057198;28;20029;-83
2023/01/31 14:11:23;;;;;;;2.22;2.00;;;;;;;;;;5086943;28;20028;-83
2023/01/31 14:14:09;;;;;;;2.35;1.63;;;;;;;;;;5053550;28;20021;-84
2023/01/31 14:16:44;;;;;;;2.90;1.92;;;;;;;;;;5053291;28;20033;-83
2023/01/31 14:19:20;;;;;;;1.63;1.45;;;;;;;;;;5058051;28;20032;-83
2023/01/31 14:21:56;;;;;;;2.17;1.95;;;;;;;;;;5058266;28;20477;-82
2023/01/31 14:24:51;;;;;;;5.18;2.70;;;;;;;;;;5058289;28;20036;-83
2023/01/31 14:27:20;;;;;;;1.40;1.30;;;;;;;;;;5058330;28;20025;-82
2023/01/31 14:29:49;;;;;;;2.25;1.63;;;;;;;;;;5056675;28;20024;-83
2023/01/31 14:32:30;;;;;;;2.17;1.75;;;;;;;;;;5055698;28;20468;-83
2023/01/31 14:34:56;;;;;;;1.73;1.50;;;;;;;;;;5054115;28;20540;-83
2023/01/31 14:37:33;;;;;;;1.38;1.30;;;;;;;;;;5059781;28;20039;-81
2023/01/31 14:40:22;;;;;;;1.77;1.48;;;;;;;;;;5056443;28;20036;-80
2023/01/31 14:42:59;;;;;;;3.17;2.38;;;;;;;;;;5055143;28;20078;-81
2023/01/31 14:46:13;;;;;;;5.40;2.38;;;;;;;;;;5057173;28;20032;-82
2023/01/31 14:49:19;;;;;;;2.13;1.50;;;;;;;;;;5023779;28;20047;-82
2023/01/31 14:52:04;;;;;;;1.70;1.60;;;;;;;;;;5054156;28;20036;-83
2023/01/31 14:54:54;;;;;;;5.15;3.15;;;;;;;;;;5055588;28;20041;-82
2023/01/31 14:57:27;;;;;;;2.85;2.35;;;;;;;;;;5061852;28;20469;-81
2023/01/31 14:59:54;;;;;;;2.15;1.42;;;;;;;;;;5055532;28;20021;-80
2023/01/31 15:02:32;;;;;;;2.63;1.75;;;;;;;;;;5056308;28;20131;-81
2023/01/31 15:05:05;;;;;;;1.13;1.10;;;;;;;;;;5058818;28;20435;-82
2023/01/31 15:07:31;;;;;;;3.42;1.98;;;;;;;;;;5055680;28;20106;-83
2023/01/31 15:09:56;;;;;;;4.18;1.90;;;;;;;;;;5062576;28;20465;-82
2023/01/31 15:12:51;;;;;;;2.38;2.05;;;;;;;;;;5062161;28;20028;-81
2023/01/31 15:15:25;;;;;;;1.73;1.38;;;;;;;;;;5058369;28;20476;-82
2023/01/31 15:17:53;;;;;;;1.55;1.45;;;;;;;;;;5052842;28;20027;-85
2023/01/31 15:20:28;;;;;;;2.38;2.17;;;;;;;;;;5054187;28;20056;-83
2023/01/31 15:23:00;;;;;;;1.42;1.33;;;;;;;;;;5052437;28;20183;-83
2023/01/31 15:25:29;;;;;;;1.90;1.33;;;;;;;;;;5055171;28;20021;-82
2023/01/31 15:27:56;;;;;;;2.00;1.90;;;;;;;;;;5067271;28;20064;-82